Palisade, South Dakota
Current Conditions -  °F | °C
As of 7:56 PM on Friday 24 Oct 2014 (Local Time) from KFSD Reporting Station
Clear Clear  
Wind Chill: 57°   Ceiling: Unl
Heat Index: 57°   Visibility: 10mi
Dew Point: 43°   Wind: 3mph
Humidity: 59%   Direction: 200°SSW
Pressure: 29.94"   Gusts: NA
Location:  43.7606°N, 96.5516°W
Report Text: KFSD 250056Z 20003KT 10SM CLR 14/06 A2994 RMK AO2 SLP142 T01390061
Loading
Personal Weather Stations






























Interactive Weather Map
Tropical Storm Tracking
New forecast layout! Learn more

10-Day Weather Forecast

Advertisements
Track Severe Weather on mobile